createdAt,value
2017-03-04T00:00:20.374Z,78.89
2017-03-04T00:01:20.906Z,78.86
2017-03-04T00:02:21.439Z,79.10
2017-03-04T00:03:21.975Z,79.36
2017-03-04T00:04:22.510Z,79.41
2017-03-04T00:05:23.045Z,79.23
2017-03-04T00:06:23.580Z,79.17
2017-03-04T00:07:24.258Z,79.25
2017-03-04T00:08:24.641Z,79.17
2017-03-04T00:09:25.174Z,79.28
2017-03-04T00:10:25.710Z,79.02
2017-03-04T00:11:26.233Z,79.25
2017-03-04T00:12:26.763Z,79.39
2017-03-04T00:13:27.294Z,79.71
2017-03-04T00:14:27.838Z,79.97
2017-03-04T00:15:28.498Z,79.79
2017-03-04T00:16:28.884Z,79.99
2017-03-04T00:17:29.414Z,80.18
2017-03-04T00:18:29.948Z,80.02
2017-03-04T00:19:30.624Z,80.26
2017-03-04T00:20:31.009Z,80.79
2017-03-04T00:21:31.543Z,81.02
2017-03-04T00:22:32.082Z,81.13
2017-03-04T00:23:32.603Z,80.87
2017-03-04T00:24:33.136Z,81.08
2017-03-04T00:25:33.667Z,80.87
2017-03-04T00:26:34.196Z,80.79
2017-03-04T00:27:34.732Z,80.97
2017-03-04T00:28:35.269Z,81.71
2017-03-04T00:29:35.794Z,81.60
2017-03-04T00:30:36.330Z,81.58
2017-03-04T00:31:36.855Z,81.87
2017-03-04T00:32:37.384Z,81.92
2017-03-04T00:33:37.917Z,81.56
2017-03-04T00:34:38.445Z,81.76
2017-03-04T00:35:38.976Z,81.84
2017-03-04T00:36:39.656Z,82.08
2017-03-04T00:37:40.039Z,81.87
2017-03-04T00:38:40.568Z,81.95
2017-03-04T00:39:41.105Z,81.71
2017-03-04T00:40:41.639Z,81.71
2017-03-04T00:41:42.169Z,81.68
2017-03-04T00:42:42.703Z,81.92
2017-03-04T00:43:43.231Z,81.79
2017-03-04T00:44:43.765Z,81.68
2017-03-04T00:45:44.300Z,81.40
2017-03-04T00:46:44.987Z,81.79
2017-03-04T00:47:45.372Z,81.10
2017-03-04T00:48:45.908Z,81.52
2017-03-04T00:49:46.443Z,81.45
2017-03-04T00:50:46.972Z,82.35
2017-03-04T00:51:47.653Z,82.93
2017-03-04T00:52:48.033Z,82.67
2017-03-04T00:53:48.565Z,82.96
2017-03-04T00:54:49.105Z,82.85
2017-03-04T00:55:49.629Z,82.96
2017-03-04T00:56:50.158Z,83.33
2017-03-04T00:57:50.693Z,83.57
2017-03-04T00:58:51.223Z,83.33
2017-03-04T00:59:51.752Z,84.28
2017-03-04T01:00:52.284Z,84.05
2017-03-04T01:01:52.813Z,84.44
2017-03-04T01:02:53.493Z,84.05
2017-03-04T01:03:53.874Z,83.78
2017-03-04T01:04:54.405Z,84.31
2017-03-04T01:05:54.940Z,84.71
2017-03-04T01:06:55.498Z,85.13
2017-03-04T01:07:56.002Z,85.46
2017-03-04T01:08:56.533Z,85.77
2017-03-04T01:09:57.064Z,85.61
2017-03-04T01:10:57.598Z,85.21
2017-03-04T01:11:58.127Z,85.40
2017-03-04T01:12:58.655Z,85.27
2017-03-04T01:13:59.185Z,85.27
2017-03-04T01:14:59.714Z,86.63
2017-03-04T01:16:00.246Z,86.38
2017-03-04T01:17:00.785Z,86.76
2017-03-04T01:18:01.309Z,86.87
2017-03-04T01:19:01.837Z,86.84
2017-03-04T01:20:02.370Z,86.84
2017-03-04T01:21:02.895Z,86.44
2017-03-04T01:22:03.433Z,86.33
2017-03-04T01:23:03.971Z,86.15
2017-03-04T01:24:04.496Z,85.80
2017-03-04T01:25:05.035Z,85.40
2017-03-04T01:26:05.556Z,85.08
2017-03-04T01:27:06.091Z,84.81
2017-03-04T01:28:06.627Z,86.07
2017-03-04T01:29:07.313Z,85.88
2017-03-04T01:30:07.695Z,86.07
2017-03-04T01:31:08.225Z,86.09
2017-03-04T01:32:08.761Z,85.88
2017-03-04T01:33:09.295Z,86.89
2017-03-04T01:34:09.826Z,86.79
2017-03-04T01:35:10.358Z,87.26
2017-03-04T01:36:10.895Z,87.10
2017-03-04T01:37:11.432Z,86.54
2017-03-04T01:38:11.956Z,86.60
2017-03-04T01:39:12.490Z,87.21
2017-03-04T01:40:13.033Z,87.32
2017-03-04T01:41:13.551Z,88.33
2017-03-04T01:42:14.081Z,89.27
2017-03-04T01:43:14.756Z,89.22
2017-03-04T01:44:15.140Z,88.79
2017-03-04T01:45:15.671Z,88.54
2017-03-04T01:46:16.207Z,88.41
2017-03-04T01:47:16.737Z,88.25
2017-03-04T01:48:17.271Z,87.90
2017-03-04T01:49:17.799Z,87.69
2017-03-04T01:50:18.336Z,87.59
2017-03-04T01:51:18.861Z,87.05
2017-03-04T01:52:19.395Z,87.21
2017-03-04T01:53:19.925Z,87.00
2017-03-04T01:54:20.457Z,87.13
2017-03-04T01:55:20.989Z,87.24
2017-03-04T01:56:21.522Z,86.63
2017-03-04T01:57:22.056Z,87.64
2017-03-04T01:58:22.730Z,87.98
2017-03-04T01:59:23.114Z,87.48
2017-03-04T02:00:23.649Z,87.34
2017-03-04T02:01:24.168Z,88.15
2017-03-04T02:02:24.705Z,88.20
2017-03-04T02:03:25.240Z,88.39
2017-03-04T02:04:25.766Z,88.36
2017-03-04T02:05:26.310Z,88.17
2017-03-04T02:06:26.831Z,88.20
2017-03-04T02:07:27.360Z,88.41
2017-03-04T02:08:27.897Z,88.62
2017-03-04T02:09:28.435Z,88.76
2017-03-04T02:10:28.968Z,88.52
2017-03-04T02:11:29.503Z,88.79
2017-03-04T02:12:30.059Z,89.24
2017-03-04T02:13:30.571Z,89.16
2017-03-04T02:14:31.099Z,88.54
2017-03-04T02:15:31.622Z,88.15
2017-03-04T02:16:32.160Z,88.09
2017-03-04T02:17:32.843Z,88.04
2017-03-04T02:18:33.220Z,87.80
2017-03-04T02:19:33.760Z,87.72
2017-03-04T02:20:34.285Z,87.45
2017-03-04T02:21:34.817Z,87.45
2017-03-04T02:22:35.357Z,87.02
2017-03-04T02:23:35.879Z,87.29
2017-03-04T02:24:36.554Z,87.32
2017-03-04T02:25:36.948Z,87.61
2017-03-04T02:26:37.473Z,87.88
2017-03-04T02:27:38.001Z,88.15
2017-03-04T02:28:38.537Z,88.09
2017-03-04T02:29:39.070Z,88.36
2017-03-04T02:30:39.600Z,88.36
2017-03-04T02:31:40.134Z,88.04
2017-03-04T02:32:40.669Z,87.85
2017-03-04T02:33:41.198Z,88.23
2017-03-04T02:34:41.731Z,88.79
2017-03-04T02:35:42.266Z,88.81
2017-03-04T02:36:42.794Z,88.79
2017-03-04T02:37:43.330Z,88.95
2017-03-04T02:38:44.156Z,89.19
2017-03-04T02:39:44.386Z,89.43
2017-03-04T02:40:44.918Z,89.00
2017-03-04T02:41:45.486Z,88.97
2017-03-04T02:42:45.983Z,89.03
2017-03-04T02:43:46.508Z,88.50
2017-03-04T02:44:47.038Z,87.80
2017-03-04T02:45:47.571Z,87.32
2017-03-04T02:46:48.107Z,87.16
2017-03-04T02:47:48.645Z,86.76
2017-03-04T02:48:49.172Z,87.08
2017-03-04T02:49:49.705Z,86.71
2017-03-04T02:50:50.241Z,87.08
2017-03-04T02:51:50.783Z,87.80
2017-03-04T02:52:51.312Z,88.79
2017-03-04T02:53:51.996Z,89.00
2017-03-04T02:54:52.374Z,89.40
2017-03-04T02:55:52.903Z,89.59
2017-03-04T02:56:53.446Z,89.56
2017-03-04T02:57:53.969Z,89.22
2017-03-04T02:58:54.505Z,89.32
2017-03-04T02:59:55.040Z,89.56
2017-03-04T03:00:55.563Z,89.59
2017-03-04T03:01:56.097Z,89.29
2017-03-04T03:02:56.637Z,89.22
2017-03-04T03:03:57.161Z,89.67
2017-03-04T03:04:57.695Z,89.83
2017-03-04T03:05:58.225Z,89.59
2017-03-04T03:06:58.754Z,89.70
2017-03-04T03:07:59.286Z,90.55
2017-03-04T03:08:59.823Z,90.96
2017-03-04T03:10:00.355Z,91.11
2017-03-04T03:11:00.882Z,91.17
2017-03-04T03:12:01.421Z,91.07
2017-03-04T03:13:01.946Z,90.82
2017-03-04T03:14:02.486Z,90.34
2017-03-04T03:15:03.012Z,90.15
2017-03-04T03:16:03.540Z,90.23
2017-03-04T03:17:04.074Z,91.33
2017-03-04T03:18:04.615Z,90.98
2017-03-04T03:19:05.138Z,90.74
2017-03-04T03:20:05.665Z,90.88
2017-03-04T03:21:06.200Z,91.03
2017-03-04T03:22:06.735Z,91.03
2017-03-04T03:23:07.262Z,90.96
2017-03-04T03:24:07.802Z,91.17
2017-03-04T03:25:08.336Z,91.55
2017-03-04T03:26:08.863Z,92.78
2017-03-04T03:27:09.390Z,93.64
2017-03-04T03:28:09.925Z,94.21
2017-03-04T03:29:10.465Z,94.29
2017-03-04T03:30:11.150Z,94.10
2017-03-04T03:31:11.531Z,93.70
2017-03-04T03:32:12.074Z,93.51
2017-03-04T03:33:12.599Z,93.10
2017-03-04T03:34:13.131Z,92.49
2017-03-04T03:35:13.663Z,92.11
2017-03-04T03:36:14.346Z,92.16
2017-03-04T03:37:14.732Z,92.16
2017-03-04T03:38:15.256Z,92.11
2017-03-04T03:39:15.787Z,92.19
2017-03-04T03:40:16.468Z,91.95
2017-03-04T03:41:16.849Z,92.40
2017-03-04T03:42:17.380Z,92.05
2017-03-04T03:43:17.908Z,91.73
2017-03-04T03:44:18.442Z,91.33
2017-03-04T03:45:18.975Z,91.41
2017-03-04T03:46:19.505Z,91.52
2017-03-04T03:47:20.036Z,91.28
2017-03-04T03:48:20.567Z,91.22
2017-03-04T03:49:21.101Z,91.22
2017-03-04T03:50:21.629Z,91.20
2017-03-04T03:51:22.161Z,91.11
2017-03-04T03:52:22.694Z,91.01
2017-03-04T03:53:23.227Z,91.38
2017-03-04T03:54:23.757Z,91.41
2017-03-04T03:55:24.290Z,91.55
2017-03-04T03:56:24.820Z,91.52
2017-03-04T03:57:25.351Z,91.63
2017-03-04T03:58:25.882Z,91.55
2017-03-04T03:59:26.426Z,91.38
2017-03-04T04:00:27.093Z,91.65
2017-03-04T04:01:27.477Z,91.71
2017-03-04T04:02:28.009Z,92.19
2017-03-04T04:03:28.545Z,91.90
2017-03-04T04:04:29.226Z,91.79
2017-03-04T04:05:29.605Z,91.79
2017-03-04T04:06:30.139Z,91.65
2017-03-04T04:07:30.677Z,91.55
2017-03-04T04:08:31.198Z,91.79
2017-03-04T04:09:31.734Z,92.14
2017-03-04T04:10:32.267Z,92.14
2017-03-04T04:11:32.813Z,91.95
2017-03-04T04:12:33.338Z,91.76
2017-03-04T04:13:33.878Z,91.55
2017-03-04T04:14:34.406Z,91.30
2017-03-04T04:15:34.937Z,90.90
2017-03-04T04:16:35.467Z,90.39
2017-03-04T04:17:36.000Z,89.75
2017-03-04T04:18:36.534Z,89.48
2017-03-04T04:19:37.065Z,88.87
2017-03-04T04:20:37.598Z,88.60
2017-03-04T04:21:38.141Z,87.96
2017-03-04T04:22:38.656Z,87.82
2017-03-04T04:23:39.186Z,87.26
2017-03-04T04:24:39.732Z,86.94
2017-03-04T04:25:40.248Z,86.49
2017-03-04T04:26:40.779Z,86.33
2017-03-04T04:27:41.312Z,86.22
2017-03-04T04:28:41.837Z,85.91
2017-03-04T04:29:42.377Z,85.85
2017-03-04T04:30:42.904Z,85.50
2017-03-04T04:31:43.444Z,85.38
2017-03-04T04:32:43.972Z,85.32
2017-03-04T04:33:44.507Z,85.08
2017-03-04T04:34:45.047Z,85.13
2017-03-04T04:35:45.571Z,85.11
2017-03-04T04:36:46.100Z,85.13
2017-03-04T04:37:46.635Z,84.92
2017-03-04T04:38:47.168Z,84.79
2017-03-04T04:39:47.699Z,84.89
2017-03-04T04:40:48.230Z,84.81
2017-03-04T04:41:48.762Z,84.87
2017-03-04T04:42:49.291Z,84.76
2017-03-04T04:43:49.825Z,84.60
2017-03-04T04:44:50.360Z,84.60
2017-03-04T04:45:50.889Z,84.44
2017-03-04T04:46:51.420Z,84.31
2017-03-04T04:47:51.951Z,84.31
2017-03-04T04:48:52.483Z,84.31
2017-03-04T04:49:53.021Z,84.23
2017-03-04T04:50:53.549Z,84.20
2017-03-04T04:51:54.084Z,84.39
2017-03-04T04:52:54.775Z,84.31
2017-03-04T04:53:55.195Z,84.60
2017-03-04T04:54:55.688Z,84.36
2017-03-04T04:55:56.223Z,85.21
2017-03-04T04:56:56.757Z,85.40
2017-03-04T04:57:57.314Z,85.46
2017-03-04T04:58:57.822Z,85.30
2017-03-04T04:59:58.358Z,85.99
2017-03-04T05:00:58.896Z,86.01
2017-03-04T05:01:59.420Z,85.77
2017-03-04T05:02:59.946Z,86.09
2017-03-04T05:04:00.481Z,86.28
2017-03-04T05:05:01.014Z,86.44
2017-03-04T05:06:01.546Z,86.63
2017-03-04T05:07:02.074Z,86.68
2017-03-04T05:08:02.602Z,87.21
2017-03-04T05:09:03.137Z,87.13
2017-03-04T05:10:03.667Z,87.24
2017-03-04T05:11:04.209Z,87.24
2017-03-04T05:12:04.729Z,87.45
2017-03-04T05:13:05.277Z,87.40
2017-03-04T05:14:05.794Z,87.82
2017-03-04T05:15:06.322Z,87.96
2017-03-04T05:16:06.853Z,88.17
2017-03-04T05:17:07.408Z,88.23
2017-03-04T05:18:07.918Z,88.39
2017-03-04T05:19:08.599Z,88.71
2017-03-04T05:20:08.980Z,88.57
2017-03-04T05:21:09.513Z,88.50
2017-03-04T05:22:10.048Z,88.12
2017-03-04T05:23:10.577Z,88.84
2017-03-04T05:24:11.110Z,89.00
2017-03-04T05:25:11.796Z,88.41
2017-03-04T05:26:12.186Z,87.90
2017-03-04T05:27:12.715Z,87.69
2017-03-04T05:28:13.248Z,88.79
2017-03-04T05:29:13.924Z,89.27
2017-03-04T05:30:14.306Z,89.56
2017-03-04T05:31:14.838Z,89.83
2017-03-04T05:32:15.373Z,90.02
2017-03-04T05:33:16.061Z,89.56
2017-03-04T05:34:16.447Z,89.19
2017-03-04T05:35:16.981Z,89.91
2017-03-04T05:36:17.521Z,89.94
2017-03-04T05:37:18.061Z,89.59
2017-03-04T05:38:18.581Z,89.75
2017-03-04T05:39:19.118Z,89.72
2017-03-04T05:40:19.647Z,89.78
2017-03-04T05:41:20.180Z,89.94
2017-03-04T05:42:20.715Z,90.05
2017-03-04T05:43:21.247Z,89.99
2017-03-04T05:44:21.775Z,89.99
2017-03-04T05:45:22.306Z,90.34
2017-03-04T05:46:22.838Z,90.63
2017-03-04T05:47:23.364Z,90.55
2017-03-04T05:48:24.050Z,90.20
2017-03-04T05:49:24.433Z,89.75
2017-03-04T05:50:24.973Z,90.36
2017-03-04T05:51:25.504Z,90.80
2017-03-04T05:52:26.038Z,90.96
2017-03-04T05:53:26.567Z,91.07
2017-03-04T05:54:27.103Z,91.60
2017-03-04T05:55:27.635Z,91.25
2017-03-04T05:56:28.163Z,90.61
2017-03-04T05:57:28.700Z,90.88
2017-03-04T05:58:29.227Z,91.41
2017-03-04T05:59:29.762Z,91.28
2017-03-04T06:00:30.292Z,91.36
2017-03-04T06:01:30.975Z,91.68
2017-03-04T06:02:31.387Z,92.14
2017-03-04T06:03:31.892Z,92.32
2017-03-04T06:04:32.591Z,92.99
2017-03-04T06:05:32.959Z,93.13
2017-03-04T06:06:33.483Z,92.97
2017-03-04T06:07:34.014Z,92.59
2017-03-04T06:08:34.549Z,92.51
2017-03-04T06:09:35.083Z,92.81
2017-03-04T06:10:35.615Z,92.62
2017-03-04T06:11:36.146Z,92.22
2017-03-04T06:12:36.874Z,92.14
2017-03-04T06:13:37.218Z,92.43
2017-03-04T06:14:37.752Z,92.51
2017-03-04T06:15:38.291Z,92.32
2017-03-04T06:16:38.824Z,92.62
2017-03-04T06:17:39.359Z,92.59
2017-03-04T06:18:39.900Z,92.32
2017-03-04T06:19:40.422Z,92.24
2017-03-04T06:20:40.957Z,92.16
2017-03-04T06:21:41.485Z,92.78
2017-03-04T06:22:42.026Z,93.13
2017-03-04T06:23:42.553Z,93.37
2017-03-04T06:24:43.090Z,93.35
2017-03-04T06:25:43.624Z,93.32
2017-03-04T06:26:44.168Z,93.10
2017-03-04T06:27:44.690Z,92.95
2017-03-04T06:28:45.221Z,92.57
2017-03-04T06:29:45.754Z,92.24
2017-03-04T06:30:46.286Z,92.14
2017-03-04T06:31:46.818Z,92.35
2017-03-04T06:32:47.351Z,92.43
2017-03-04T06:33:47.889Z,92.38
2017-03-04T06:34:48.420Z,92.16
2017-03-04T06:35:48.950Z,92.08
2017-03-04T06:36:49.483Z,91.65
2017-03-04T06:37:50.014Z,91.11
2017-03-04T06:38:50.548Z,90.74
2017-03-04T06:39:51.080Z,90.53
2017-03-04T06:40:51.615Z,90.39
2017-03-04T06:41:52.153Z,90.18
2017-03-04T06:42:52.688Z,90.07
2017-03-04T06:43:53.213Z,89.80
2017-03-04T06:44:53.749Z,89.78
2017-03-04T06:45:54.276Z,89.70
2017-03-04T06:46:54.810Z,89.56
2017-03-04T06:47:55.343Z,89.54
2017-03-04T06:48:55.878Z,89.37
2017-03-04T06:49:56.557Z,89.32
2017-03-04T06:50:56.942Z,89.06
2017-03-04T06:51:57.623Z,88.71
2017-03-04T06:52:58.008Z,88.36
2017-03-04T06:53:58.539Z,88.33
2017-03-04T06:54:59.072Z,88.23
2017-03-04T06:55:59.607Z,88.17
2017-03-04T06:57:00.145Z,88.01
2017-03-04T06:58:00.679Z,88.01
2017-03-04T06:59:01.211Z,87.88
2017-03-04T07:00:02.045Z,87.69
2017-03-04T07:01:02.282Z,87.74
2017-03-04T07:02:02.825Z,87.64
2017-03-04T07:03:03.346Z,87.56
2017-03-04T07:04:03.880Z,87.61
2017-03-04T07:05:04.413Z,87.45
2017-03-04T07:06:05.088Z,87.32
2017-03-04T07:07:05.471Z,87.26
2017-03-04T07:08:06.001Z,87.21
2017-03-04T07:09:06.531Z,87.02
2017-03-04T07:10:07.059Z,87.10
2017-03-04T07:11:07.595Z,86.84
2017-03-04T07:12:08.134Z,87.00
2017-03-04T07:13:08.659Z,86.71
2017-03-04T07:14:09.188Z,86.79
2017-03-04T07:15:09.866Z,86.36
2017-03-04T07:16:10.252Z,85.88
2017-03-04T07:17:10.782Z,85.91
2017-03-04T07:18:11.319Z,85.35
2017-03-04T07:19:11.849Z,85.38
2017-03-04T07:20:12.395Z,85.48
2017-03-04T07:21:12.914Z,85.32
2017-03-04T07:22:13.456Z,85.21
2017-03-04T07:23:13.976Z,85.83
2017-03-04T07:24:14.508Z,85.11
2017-03-04T07:25:15.041Z,84.97
2017-03-04T07:26:15.573Z,85.13
2017-03-04T07:27:16.109Z,85.13
2017-03-04T07:28:16.636Z,85.46
2017-03-04T07:29:17.171Z,84.95
2017-03-04T07:30:17.709Z,84.76
2017-03-04T07:31:18.234Z,84.58
2017-03-04T07:32:18.770Z,84.71
2017-03-04T07:33:19.299Z,84.26
2017-03-04T07:34:19.828Z,84.07
2017-03-04T07:35:20.368Z,83.62
2017-03-04T07:36:20.903Z,83.51
2017-03-04T07:37:21.448Z,84.15
2017-03-04T07:38:21.978Z,83.40
2017-03-04T07:39:22.679Z,82.64
2017-03-04T07:40:23.039Z,82.61
2017-03-04T07:41:23.575Z,82.29
2017-03-04T07:42:24.112Z,82.37
2017-03-04T07:43:24.652Z,81.48
2017-03-04T07:44:25.169Z,81.37
2017-03-04T07:45:25.701Z,81.98
2017-03-04T07:46:26.228Z,81.66
2017-03-04T07:47:27.062Z,81.18
2017-03-04T07:48:27.294Z,81.29
2017-03-04T07:49:27.827Z,81.24
2017-03-04T07:50:28.358Z,79.99
2017-03-04T07:51:28.891Z,80.31
2017-03-04T07:52:29.429Z,79.81
2017-03-04T07:53:29.960Z,79.71
2017-03-04T07:54:30.488Z,79.79
2017-03-04T07:55:31.027Z,80.26
2017-03-04T07:56:31.554Z,79.71
2017-03-04T07:57:32.088Z,79.79
2017-03-04T07:58:32.622Z,79.97
2017-03-04T07:59:33.153Z,78.47
2017-03-04T08:00:33.682Z,78.75
2017-03-04T08:01:34.211Z,78.57
2017-03-04T08:02:34.743Z,77.99
2017-03-04T08:03:35.274Z,77.67
2017-03-04T08:04:35.804Z,78.12
2017-03-04T08:05:36.343Z,78.17
2017-03-04T08:06:36.874Z,76.86
2017-03-04T08:07:37.396Z,77.78
2017-03-04T08:08:37.923Z,76.26
2017-03-04T08:09:38.459Z,76.70
2017-03-04T08:10:38.991Z,75.78
2017-03-04T08:11:39.524Z,76.57
2017-03-04T08:12:40.049Z,76.62
2017-03-04T08:13:40.613Z,76.26
2017-03-04T08:14:41.123Z,76.02
2017-03-04T08:15:41.648Z,75.57
2017-03-04T08:16:42.182Z,75.78
2017-03-04T08:17:42.716Z,74.21
2017-03-04T08:18:43.254Z,74.26
2017-03-04T08:19:43.790Z,74.79
2017-03-04T08:20:44.322Z,74.66
2017-03-04T08:21:44.861Z,74.00
2017-03-04T08:22:45.392Z,74.66
2017-03-04T08:23:45.926Z,73.89
2017-03-04T08:24:46.466Z,73.50
2017-03-04T08:25:46.987Z,70.95
2017-03-04T08:26:47.519Z,69.88
2017-03-04T08:27:48.052Z,70.87
2017-03-04T08:28:48.585Z,70.60
2017-03-04T08:29:49.115Z,70.35
2017-03-04T08:30:49.796Z,68.76
2017-03-04T08:31:50.353Z,68.01
2017-03-04T08:32:50.710Z,67.16
2017-03-04T08:33:51.241Z,67.39
2017-03-04T08:34:51.774Z,65.58
2017-03-04T08:35:52.303Z,65.06
2017-03-04T08:36:52.837Z,64.29
2017-03-04T08:37:53.366Z,64.13
2017-03-04T08:38:53.898Z,64.88
2017-03-04T08:39:54.439Z,63.51
2017-03-04T08:40:54.969Z,63.30
2017-03-04T08:41:55.497Z,63.07
2017-03-04T08:42:56.028Z,63.35
2017-03-04T08:43:56.563Z,63.18
2017-03-04T08:44:57.093Z,62.56
2017-03-04T08:45:57.622Z,62.12
2017-03-04T08:46:58.156Z,63.15
2017-03-04T08:47:58.682Z,63.18
2017-03-04T08:48:59.218Z,63.41
2017-03-04T08:49:59.773Z,62.61
2017-03-04T08:51:00.280Z,62.53
2017-03-04T08:52:00.810Z,62.58
2017-03-04T08:53:01.338Z,62.25
2017-03-04T08:54:01.870Z,62.35
2017-03-04T08:55:02.404Z,62.58
2017-03-04T08:56:02.933Z,62.92
2017-03-04T08:57:03.467Z,63.18
2017-03-04T08:58:04.001Z,62.71
2017-03-04T08:59:04.535Z,62.74
2017-03-04T09:00:05.073Z,62.02
2017-03-04T09:01:05.609Z,61.35
2017-03-04T09:02:06.142Z,63.07
2017-03-04T09:03:06.825Z,62.77
2017-03-04T09:04:07.207Z,62.50
2017-03-04T09:05:07.740Z,62.18
2017-03-04T09:06:08.271Z,62.63
2017-03-04T09:07:08.808Z,62.92
2017-03-04T09:08:09.337Z,63.10
2017-03-04T09:09:09.868Z,62.38
2017-03-04T09:10:10.399Z,63.35
2017-03-04T09:11:10.923Z,62.25
2017-03-04T09:12:11.460Z,61.82
2017-03-04T09:13:12.004Z,61.20
2017-03-04T09:14:12.533Z,61.71
2017-03-04T09:15:13.072Z,61.48
2017-03-04T09:16:13.602Z,61.27
2017-03-04T09:17:14.121Z,61.38
2017-03-04T09:18:14.651Z,61.17
2017-03-04T09:19:15.184Z,60.86
2017-03-04T09:20:15.860Z,61.30
2017-03-04T09:21:16.240Z,61.02
2017-03-04T09:22:16.777Z,60.71
2017-03-04T09:23:17.306Z,59.68
2017-03-04T09:24:17.844Z,59.58
2017-03-04T09:25:18.370Z,58.35
2017-03-04T09:26:18.905Z,58.07
2017-03-04T09:27:19.435Z,58.51
2017-03-04T09:28:19.969Z,58.84
2017-03-04T09:29:20.501Z,58.53
2017-03-04T09:30:21.025Z,58.66
2017-03-04T09:31:21.559Z,58.74
2017-03-04T09:32:22.091Z,58.68
2017-03-04T09:33:22.617Z,58.79
2017-03-04T09:34:23.154Z,59.09
2017-03-04T09:35:23.690Z,59.07
2017-03-04T09:36:24.223Z,58.15
2017-03-04T09:37:24.747Z,59.02
2017-03-04T09:38:25.281Z,58.92
2017-03-04T09:39:25.824Z,58.33
2017-03-04T09:40:26.352Z,58.76
2017-03-04T09:41:26.889Z,58.76
2017-03-04T09:42:27.425Z,57.71
2017-03-04T09:43:27.968Z,57.18
2017-03-04T09:44:28.487Z,57.21
2017-03-04T09:45:29.021Z,57.59
2017-03-04T09:46:29.558Z,57.71
2017-03-04T09:47:30.084Z,57.71
2017-03-04T09:48:30.620Z,57.89
2017-03-04T09:49:31.150Z,58.23
2017-03-04T09:50:31.682Z,58.87
2017-03-04T09:51:32.215Z,58.25
2017-03-04T09:52:32.748Z,59.35
2017-03-04T09:53:33.430Z,59.89
2017-03-04T09:54:33.808Z,59.43
2017-03-04T09:55:34.340Z,59.53
2017-03-04T09:56:34.874Z,60.35
2017-03-04T09:57:35.411Z,59.71
2017-03-04T09:58:35.942Z,58.84
2017-03-04T09:59:36.475Z,56.67
2017-03-04T10:00:37.005Z,54.66
2017-03-04T10:01:37.534Z,55.57
2017-03-04T10:02:38.073Z,54.96
2017-03-04T10:03:38.596Z,55.60
2017-03-04T10:04:39.134Z,54.83
2017-03-04T10:05:39.666Z,52.63
2017-03-04T10:06:40.198Z,53.72
2017-03-04T10:07:40.884Z,52.65
2017-03-04T10:08:41.262Z,51.95
2017-03-04T10:09:41.795Z,52.17
2017-03-04T10:10:42.323Z,52.20
2017-03-04T10:11:42.854Z,52.35
2017-03-04T10:12:43.384Z,51.99
2017-03-04T10:13:43.919Z,52.48
2017-03-04T10:14:44.452Z,51.71
2017-03-04T10:15:44.981Z,50.20
2017-03-04T10:16:45.512Z,51.06
2017-03-04T10:17:46.048Z,51.69
2017-03-04T10:18:46.572Z,51.57
2017-03-04T10:19:47.108Z,51.49
2017-03-04T10:20:47.643Z,51.04
2017-03-04T10:21:48.185Z,50.73
2017-03-04T10:22:48.725Z,50.43
2017-03-04T10:23:49.248Z,50.48
2017-03-04T10:24:49.789Z,50.27
2017-03-04T10:25:50.317Z,52.27
2017-03-04T10:26:50.848Z,50.48
2017-03-04T10:27:51.380Z,51.95
2017-03-04T10:28:52.057Z,50.58
2017-03-04T10:29:52.445Z,51.11
2017-03-04T10:30:52.975Z,51.87
2017-03-04T10:31:53.511Z,50.55
2017-03-04T10:32:54.035Z,50.75
2017-03-04T10:33:54.567Z,48.23
2017-03-04T10:35:55.645Z,48.48
2017-03-04T10:36:56.168Z,49.67
2017-03-04T10:37:56.708Z,49.32
2017-03-04T10:38:57.234Z,51.82
2017-03-04T10:39:57.783Z,48.31
2017-03-04T10:40:58.292Z,47.63
2017-03-04T10:41:58.831Z,48.99
2017-03-04T10:42:59.358Z,47.88
2017-03-04T10:43:59.890Z,47.63
2017-03-04T10:45:00.420Z,48.28
2017-03-04T10:46:00.960Z,47.28
2017-03-04T10:47:01.633Z,47.26
2017-03-04T10:48:02.016Z,48.11
2017-03-04T10:49:02.549Z,48.23
2017-03-04T10:50:03.090Z,47.58
2017-03-04T10:51:03.620Z,47.56
2017-03-04T10:52:04.149Z,47.83
2017-03-04T10:53:04.677Z,47.36
2017-03-04T10:54:05.211Z,45.85
2017-03-04T10:55:05.741Z,47.10
2017-03-04T10:56:06.278Z,47.71
2017-03-04T10:57:06.809Z,46.81
2017-03-04T10:58:07.345Z,46.63
2017-03-04T10:59:07.871Z,46.18
2017-03-04T11:00:08.413Z,47.68
2017-03-04T11:01:08.935Z,47.53
2017-03-04T11:02:09.468Z,46.95
2017-03-04T11:03:10.009Z,48.39
2017-03-04T11:04:10.541Z,47.63
2017-03-04T11:05:11.076Z,47.53
2017-03-04T11:06:11.604Z,48.26
2017-03-04T11:07:12.137Z,47.53
2017-03-04T11:08:12.664Z,46.93
2017-03-04T11:09:13.203Z,47.20
2017-03-04T11:10:13.734Z,47.58
2017-03-04T11:11:14.266Z,47.93
2017-03-04T11:12:14.796Z,47.48
2017-03-04T11:13:15.328Z,47.45
2017-03-04T11:14:15.871Z,48.14
2017-03-04T11:15:16.537Z,48.51
2017-03-04T11:16:16.920Z,47.61
2017-03-04T11:17:17.448Z,48.84
2017-03-04T11:18:17.979Z,49.34
2017-03-04T11:19:18.512Z,50.48
2017-03-04T11:20:19.057Z,49.49
2017-03-04T11:21:19.581Z,49.62
2017-03-04T11:22:20.268Z,51.01
2017-03-04T11:23:20.645Z,51.13
2017-03-04T11:24:21.321Z,51.19
2017-03-04T11:25:21.706Z,51.44
2017-03-04T11:26:22.389Z,51.11
2017-03-04T11:27:22.769Z,52.27
2017-03-04T11:28:23.301Z,53.16
2017-03-04T11:29:23.828Z,51.51
2017-03-04T11:30:24.373Z,51.66
2017-03-04T11:31:24.892Z,52.48
2017-03-04T11:32:25.425Z,51.84
2017-03-04T11:33:25.954Z,51.97
2017-03-04T11:34:26.487Z,52.96
2017-03-04T11:35:27.016Z,53.34
2017-03-04T11:36:27.555Z,53.34
2017-03-04T11:37:28.085Z,53.09
2017-03-04T11:38:28.768Z,53.23
2017-03-04T11:39:29.151Z,52.15
2017-03-04T11:40:29.682Z,51.99
2017-03-04T11:41:30.222Z,53.77
2017-03-04T11:42:30.906Z,53.23
2017-03-04T11:43:31.439Z,53.36
2017-03-04T11:44:31.834Z,52.83
2017-03-04T11:45:32.362Z,53.01
2017-03-04T11:46:32.896Z,53.90
2017-03-04T11:47:33.428Z,53.79
2017-03-04T11:48:33.961Z,54.68
2017-03-04T11:49:34.497Z,53.79
2017-03-04T11:50:35.024Z,53.49
2017-03-04T11:51:35.556Z,54.41
2017-03-04T11:52:36.086Z,52.63
2017-03-04T11:53:36.621Z,53.11
2017-03-04T11:54:37.152Z,51.64
2017-03-04T11:55:37.684Z,50.93
2017-03-04T11:56:38.218Z,53.26
2017-03-04T11:57:38.746Z,52.43
2017-03-04T11:58:39.280Z,51.84
2017-03-04T11:59:39.812Z,49.80
2017-03-04T12:00:40.350Z,50.78
2017-03-04T12:01:40.874Z,52.43
2017-03-04T12:02:41.404Z,50.55
2017-03-04T12:03:41.940Z,50.96
2017-03-04T12:04:42.469Z,50.66
2017-03-04T12:05:43.008Z,51.39
2017-03-04T12:06:43.536Z,51.08
2017-03-04T12:07:44.071Z,52.48
2017-03-04T12:08:44.596Z,51.95
2017-03-04T12:09:45.131Z,51.33
2017-03-04T12:10:45.660Z,52.90
2017-03-04T12:11:46.193Z,50.48
2017-03-04T12:12:46.728Z,50.45
2017-03-04T12:13:47.255Z,50.07
2017-03-04T12:14:47.792Z,49.52
2017-03-04T12:15:48.318Z,48.61
2017-03-04T12:16:48.849Z,49.44
2017-03-04T12:17:49.390Z,49.34
2017-03-04T12:18:49.910Z,52.27
2017-03-04T12:19:50.448Z,49.12
2017-03-04T12:20:50.977Z,47.31
2017-03-04T12:21:51.518Z,46.48
2017-03-04T12:22:52.056Z,46.88
2017-03-04T12:23:52.589Z,46.25
2017-03-04T12:24:53.159Z,45.70
2017-03-04T12:25:53.664Z,47.40
2017-03-04T12:26:54.202Z,45.80
2017-03-04T12:27:54.742Z,47.31
2017-03-04T12:28:55.265Z,46.73
2017-03-04T12:29:55.795Z,46.10
2017-03-04T12:30:56.326Z,45.65
2017-03-04T12:31:57.005Z,47.36
2017-03-04T12:32:57.394Z,45.80
2017-03-04T12:33:57.925Z,46.60
2017-03-04T12:34:58.452Z,46.48
2017-03-04T12:35:58.987Z,46.73
2017-03-04T12:36:59.519Z,47.81
2017-03-04T12:38:00.053Z,47.98
2017-03-04T12:39:00.588Z,48.79
2017-03-04T12:40:01.115Z,46.65
2017-03-04T12:41:01.646Z,47.13
2017-03-04T12:42:02.181Z,47.18
2017-03-04T12:43:02.712Z,47.86
2017-03-04T12:44:03.240Z,48.31
2017-03-04T12:45:03.771Z,47.40
2017-03-04T12:46:04.304Z,47.00
2017-03-04T12:47:04.835Z,45.98
2017-03-04T12:48:05.372Z,45.85
2017-03-04T12:49:05.901Z,46.32
2017-03-04T12:50:06.442Z,46.48
2017-03-04T12:51:06.967Z,46.88
2017-03-04T12:52:07.496Z,46.52
2017-03-04T12:53:08.030Z,45.73
2017-03-04T12:54:08.709Z,47.26
2017-03-04T12:55:09.094Z,45.18
2017-03-04T12:56:09.625Z,44.02
2017-03-04T12:57:10.156Z,45.40
2017-03-04T12:58:10.688Z,45.37
2017-03-04T12:59:11.213Z,43.97
2017-03-04T13:00:11.744Z,44.57